Time;durP1;ratioP1;P1;durP2;ratioP2;P2;SDS_P1;SDS_P2;PMS_P1;PMS_P2;Temp;Humidity;BMP_temperature;BMP_pressure;BME280_temperature;BME280_humidity;BME280_pressure;Samples;Min_cycle;Max_cycle;Signal;HPM_P1;HPM_P2
2022/06/20 00:02:19;;;;;;;4.07;0.65;;;13.50;99.90;;;;;;5041913;28;20062;-87
2022/06/20 00:04:45;;;;;;;2.85;0.30;;;13.30;99.90;;;;;;5042352;28;20851;-87
2022/06/20 00:07:12;;;;;;;4.50;0.30;;;13.30;99.90;;;;;;5021219;28;20371;-87
2022/06/20 00:09:38;;;;;;;2.30;0.32;;;13.30;99.90;;;;;;5036836;28;20036;-87
2022/06/20 00:12:04;;;;;;;2.05;0.20;;;13.40;99.90;;;;;;5037707;28;20039;-88
2022/06/20 00:14:30;;;;;;;3.30;0.40;;;13.40;99.90;;;;;;5038644;28;20029;-88
2022/06/20 00:16:56;;;;;;;2.97;0.50;;;13.30;99.90;;;;;;5039457;28;20028;-88
2022/06/20 00:19:21;;;;;;;6.75;0.40;;;13.30;99.90;;;;;;5051821;28;20033;-88
2022/06/20 00:21:47;;;;;;;3.83;0.35;;;13.20;99.90;;;;;;5035248;28;20025;-88
2022/06/20 00:24:12;;;;;;;3.03;0.38;;;13.10;99.90;;;;;;5020665;28;20047;-87
2022/06/20 00:26:38;;;;;;;4.40;0.40;;;13.10;99.90;;;;;;5035124;28;20025;-87
2022/06/20 00:29:07;;;;;;;4.85;0.30;;;13.10;99.90;;;;;;5041893;28;20390;-87
2022/06/20 00:31:34;;;;;;;3.38;0.35;;;13.10;99.90;;;;;;5035912;28;20144;-88
2022/06/20 00:34:00;;;;;;;1.55;0.30;;;13.10;99.90;;;;;;5053333;28;20021;-87
2022/06/20 00:36:26;;;;;;;2.90;0.20;;;13.10;99.90;;;;;;5053319;28;20492;-86
2022/06/20 00:38:56;;;;;;;1.27;0.20;;;13.10;99.90;;;;;;5040349;28;20134;-87
2022/06/20 00:41:32;;;;;;;3.55;0.32;;;13.10;99.90;;;;;;5037586;28;20060;-87
2022/06/20 00:43:58;;;;;;;3.20;0.20;;;13.10;99.90;;;;;;5036915;28;20545;-87
2022/06/20 00:46:32;;;;;;;3.88;0.20;;;13.10;99.90;;;;;;5052554;28;20029;-87
2022/06/20 00:49:08;;;;;;;1.02;0.20;;;13.10;99.90;;;;;;5035386;28;20035;-87
2022/06/20 00:51:45;;;;;;;2.33;0.20;;;13.20;99.90;;;;;;5042990;28;20245;-87
2022/06/20 00:54:16;;;;;;;2.45;0.20;;;13.20;99.90;;;;;;5031121;28;20469;-88
2022/06/20 00:56:54;;;;;;;2.22;0.20;;;13.20;99.90;;;;;;5025212;28;20059;-86
2022/06/20 00:59:33;;;;;;;2.72;0.20;;;13.20;99.90;;;;;;5021609;28;20489;-87
2022/06/20 01:02:00;;;;;;;3.63;0.20;;;13.20;99.90;;;;;;5056560;28;20023;-87
2022/06/20 01:04:36;;;;;;;1.20;0.15;;;13.20;99.90;;;;;;5041169;28;20032;-87
2022/06/20 01:07:07;;;;;;;2.17;0.30;;;13.20;99.90;;;;;;5041072;28;20505;-88
2022/06/20 01:09:36;;;;;;;1.75;0.32;;;13.20;99.90;;;;;;5022483;28;20048;-87
2022/06/20 01:12:03;;;;;;;2.38;0.45;;;13.20;99.90;;;;;;5056518;28;20472;-87
2022/06/20 01:14:38;;;;;;;3.08;0.20;;;13.10;99.90;;;;;;5056851;28;20067;-87
2022/06/20 01:17:43;;;;;;;2.33;0.20;;;13.20;99.90;;;;;;5026380;28;20381;-87
2022/06/20 01:20:17;;;;;;;2.03;0.13;;;13.20;99.90;;;;;;5050269;28;20063;-87
2022/06/20 01:22:55;;;;;;;1.58;0.10;;;13.20;99.90;;;;;;5030456;28;20689;-88
2022/06/20 01:25:43;;;;;;;1.83;0.25;;;13.10;99.90;;;;;;5038990;28;20111;-87
2022/06/20 01:28:14;;;;;;;1.25;0.17;;;13.10;99.90;;;;;;5023522;28;20029;-87
2022/06/20 01:30:43;;;;;;;1.90;0.20;;;13.10;99.90;;;;;;5054695;28;20040;-87
2022/06/20 01:33:11;;;;;;;1.13;0.15;;;13.10;99.90;;;;;;5056010;28;20113;-87
2022/06/20 01:38:21;;;;;;;1.48;0.10;;;13.20;99.90;;;;;;5037870;28;20089;-87
2022/06/20 01:43:34;;;;;;;0.80;0.20;;;13.20;99.90;;;;;;5056574;28;20056;-86
2022/06/20 01:46:08;;;;;;;3.33;0.20;;;13.20;99.90;;;;;;5055508;28;20033;-87
2022/06/20 01:48:37;;;;;;;1.05;0.10;;;13.20;99.90;;;;;;5055735;28;20052;-87
2022/06/20 01:51:12;;;;;;;2.03;0.20;;;13.20;99.90;;;;;;5039268;28;20040;-88
2022/06/20 01:53:37;;;;;;;2.55;0.20;;;13.20;99.90;;;;;;5054355;28;20025;-88
2022/06/20 01:56:04;;;;;;;2.13;0.20;;;13.10;99.90;;;;;;5038902;28;20416;-87
2022/06/20 01:58:36;;;;;;;2.45;0.20;;;13.10;99.90;;;;;;5048560;28;20474;-87
2022/06/20 02:01:03;;;;;;;1.50;0.20;;;13.10;99.90;;;;;;5064228;28;20377;-87
2022/06/20 02:03:31;;;;;;;3.00;0.20;;;13.00;99.90;;;;;;5040441;28;20058;-87
2022/06/20 02:05:57;;;;;;;1.30;0.10;;;12.90;99.90;;;;;;5039666;28;20476;-86
2022/06/20 02:08:24;;;;;;;1.98;0.20;;;12.90;99.90;;;;;;5057627;28;20472;-88
2022/06/20 02:11:11;;;;;;;3.03;0.20;;;12.80;99.90;;;;;;5038380;28;20896;-87
2022/06/20 02:13:42;;;;;;;2.05;0.63;;;12.70;99.90;;;;;;5043558;28;20119;-87
2022/06/20 02:16:11;;;;;;;1.40;0.15;;;12.70;99.90;;;;;;5056812;28;20036;-87
2022/06/20 02:18:41;;;;;;;2.33;0.20;;;12.60;99.90;;;;;;5024530;28;20107;-86
2022/06/20 02:21:13;;;;;;;2.58;0.20;;;12.60;99.90;;;;;;5053542;28;20410;-87
2022/06/20 02:23:44;;;;;;;1.30;0.20;;;12.50;99.90;;;;;;5042414;28;20397;-87
2022/06/20 02:26:11;;;;;;;1.35;0.10;;;12.60;99.90;;;;;;5055205;28;20032;-87
2022/06/20 02:28:45;;;;;;;3.13;0.20;;;12.50;99.90;;;;;;5049101;28;20093;-87
2022/06/20 02:31:11;;;;;;;1.55;0.20;;;12.40;99.90;;;;;;5054170;28;20384;-87
2022/06/20 02:33:37;;;;;;;2.05;0.20;;;12.30;99.90;;;;;;5037299;28;20093;-87
2022/06/20 02:36:05;;;;;;;1.40;0.20;;;12.30;99.90;;;;;;5035882;28;20501;-87
2022/06/20 02:38:31;;;;;;;2.40;0.22;;;12.20;99.90;;;;;;5042258;28;20469;-87
2022/06/20 02:40:57;;;;;;;2.40;0.20;;;12.20;99.90;;;;;;5025997;28;20039;-87
2022/06/20 02:43:36;;;;;;;2.13;0.20;;;12.20;99.90;;;;;;5035626;28;20028;-88
2022/06/20 02:46:03;;;;;;;0.90;0.20;;;12.20;99.90;;;;;;5036535;28;20039;-87
2022/06/20 02:48:33;;;;;;;2.65;0.20;;;12.20;99.90;;;;;;5035982;28;20274;-85
2022/06/20 02:51:03;;;;;;;3.03;0.52;;;12.30;99.90;;;;;;5052725;28;20120;-87
2022/06/20 02:53:49;;;;;;;2.45;0.30;;;12.30;99.90;;;;;;5043156;28;20393;-87
2022/06/20 02:56:18;;;;;;;3.05;0.20;;;12.30;99.90;;;;;;5023864;28;20040;-87
2022/06/20 02:59:01;;;;;;;0.95;0.20;;;12.30;99.90;;;;;;5038211;28;20021;-85
2022/06/20 03:01:42;;;;;;;1.30;0.30;;;12.30;99.90;;;;;;5042861;28;20083;-87
2022/06/20 03:04:08;;;;;;;2.13;0.22;;;12.30;99.90;;;;;;5036058;28;20037;-87
2022/06/20 03:06:40;;;;;;;2.40;0.30;;;12.30;99.90;;;;;;5050384;28;20021;-87
2022/06/20 03:09:06;;;;;;;1.52;0.30;;;12.30;99.90;;;;;;5035204;28;20108;-87
2022/06/20 03:11:35;;;;;;;2.75;0.43;;;12.30;99.90;;;;;;5036860;28;20079;-87
2022/06/20 03:14:05;;;;;;;3.05;0.40;;;12.30;99.90;;;;;;5039383;28;20032;-88
2022/06/20 03:16:32;;;;;;;3.05;0.40;;;12.30;99.90;;;;;;5053073;28;20028;-86
2022/06/20 03:18:59;;;;;;;2.45;0.40;;;12.30;99.90;;;;;;5052091;28;20032;-86
2022/06/20 03:21:36;;;;;;;4.70;0.50;;;12.30;99.90;;;;;;5025112;28;20029;-87
2022/06/20 03:24:03;;;;;;;3.28;0.43;;;12.30;99.90;;;;;;5036405;28;20025;-87
2022/06/20 03:26:30;;;;;;;3.90;0.55;;;12.30;99.90;;;;;;5027834;28;20028;-87
2022/06/20 03:28:56;;;;;;;3.28;0.77;;;12.30;99.90;;;;;;5038363;28;20033;-86
2022/06/20 03:31:22;;;;;;;5.47;0.88;;;12.30;99.90;;;;;;5035671;28;20110;-87
2022/06/20 03:33:48;;;;;;;2.63;0.38;;;12.30;99.90;;;;;;5049925;28;20103;-87
2022/06/20 03:36:26;;;;;;;2.38;0.30;;;12.30;99.90;;;;;;5031709;28;20052;-86
2022/06/20 03:38:54;;;;;;;4.93;0.50;;;12.40;99.90;;;;;;5035772;28;20135;-87
2022/06/20 03:41:23;;;;;;;4.93;0.50;;;12.40;99.90;;;;;;5031060;28;20397;-87
2022/06/20 03:44:06;;;;;;;1.50;0.30;;;12.30;99.90;;;;;;5038567;28;20119;-86
2022/06/20 03:46:43;;;;;;;2.05;0.40;;;12.40;99.90;;;;;;5029697;28;20060;-87
2022/06/20 03:49:22;;;;;;;2.28;0.30;;;12.40;99.90;;;;;;5040183;28;20565;-87
2022/06/20 03:52:00;;;;;;;6.95;0.60;;;12.40;99.90;;;;;;5050089;28;20123;-86
2022/06/20 03:54:49;;;;;;;3.40;0.60;;;12.40;99.90;;;;;;5048412;28;20095;-86
2022/06/20 03:57:21;;;;;;;3.05;0.50;;;12.40;99.90;;;;;;5040521;28;20029;-86
2022/06/20 03:59:56;;;;;;;6.07;0.47;;;12.40;99.90;;;;;;5025890;28;20106;-87
2022/06/20 04:02:30;;;;;;;4.07;0.60;;;12.40;99.90;;;;;;5036640;28;20224;-86
2022/06/20 04:05:02;;;;;;;2.35;0.50;;;12.30;99.90;;;;;;5049327;28;20033;-87
2022/06/20 04:07:45;;;;;;;3.85;0.40;;;12.40;99.90;;;;;;5049669;28;20078;-87
2022/06/20 04:13:22;;;;;;;3.03;0.40;;;12.40;99.90;;;;;;5032387;28;20143;-86
2022/06/20 04:16:00;;;;;;;2.15;0.40;;;12.40;99.90;;;;;;5035799;28;20036;-87
2022/06/20 04:18:36;;;;;;;2.58;0.40;;;12.40;99.90;;;;;;5049565;28;20041;-87
2022/06/20 04:21:08;;;;;;;3.35;0.52;;;12.40;99.90;;;;;;5039067;28;20454;-87
2022/06/20 04:23:46;;;;;;;2.72;0.47;;;12.50;99.90;;;;;;5027871;28;20086;-87
2022/06/20 04:26:44;;;;;;;3.65;0.40;;;12.60;99.90;;;;;;5051795;28;20507;-86
2022/06/20 04:29:30;;;;;;;1.17;0.25;;;12.80;99.90;;;;;;5051013;28;20025;-87
2022/06/20 04:32:19;;;;;;;3.80;0.40;;;12.80;99.90;;;;;;5055601;28;20041;-87
2022/06/20 04:34:51;;;;;;;2.03;0.20;;;12.80;99.90;;;;;;5037491;28;20055;-86
2022/06/20 04:37:27;;;;;;;3.53;0.30;;;12.90;99.90;;;;;;5052230;28;20116;-86
2022/06/20 04:40:02;;;;;;;1.70;0.20;;;12.80;99.90;;;;;;5033894;28;20033;-87
2022/06/20 04:42:38;;;;;;;1.52;0.30;;;12.90;99.90;;;;;;5035931;28;20121;-85
2022/06/20 04:45:28;;;;;;;1.30;0.20;;;13.00;99.90;;;;;;5051076;28;20027;-86
2022/06/20 04:47:59;;;;;;;3.22;0.20;;;13.00;99.90;;;;;;5052726;28;20119;-87
2022/06/20 04:50:27;;;;;;;4.28;0.32;;;13.10;99.90;;;;;;5052805;28;20063;-87
2022/06/20 04:52:59;;;;;;;3.05;0.30;;;13.10;99.90;;;;;;5051880;28;20067;-87
2022/06/20 04:55:27;;;;;;;4.65;0.43;;;13.20;99.90;;;;;;5036587;28;20408;-85
2022/06/20 04:57:58;;;;;;;3.10;0.32;;;13.30;99.90;;;;;;5027041;28;20083;-86
2022/06/20 05:00:29;;;;;;;7.47;0.50;;;13.40;99.90;;;;;;5051187;28;20154;-87
2022/06/20 05:02:56;;;;;;;5.05;0.60;;;13.60;99.90;;;;;;5040371;28;20032;-85
2022/06/20 05:05:25;;;;;;;3.05;0.40;;;13.60;99.90;;;;;;5039391;28;20029;-86
2022/06/20 05:07:51;;;;;;;3.78;0.43;;;13.50;99.90;;;;;;5033364;28;20032;-86
2022/06/20 05:10:23;;;;;;;3.13;0.68;;;13.50;99.90;;;;;;5020982;28;20045;-86
2022/06/20 05:12:55;;;;;;;2.92;0.30;;;13.40;99.90;;;;;;5033323;28;20032;-86
2022/06/20 05:15:30;;;;;;;3.85;0.50;;;13.50;99.90;;;;;;5038684;28;20136;-86
2022/06/20 05:17:59;;;;;;;3.80;0.50;;;13.60;99.90;;;;;;5049678;28;20169;-83
2022/06/20 05:20:32;;;;;;;2.58;0.30;;;13.60;99.90;;;;;;5026436;28;20032;-85
2022/06/20 05:23:33;;;;;;;3.15;0.35;;;13.70;99.90;;;;;;5038540;28;20037;-83
2022/06/20 05:26:01;;;;;;;2.05;0.30;;;13.80;99.90;;;;;;5051215;28;20124;-85
2022/06/20 05:28:29;;;;;;;2.47;0.32;;;13.80;99.90;;;;;;5050598;28;20513;-85
2022/06/20 05:30:55;;;;;;;2.63;0.30;;;14.00;99.90;;;;;;5051862;28;20033;-85
2022/06/20 05:33:36;;;;;;;3.33;0.30;;;14.30;99.90;;;;;;5024841;28;20029;-85
2022/06/20 05:36:26;;;;;;;2.58;0.35;;;14.50;99.90;;;;;;5040213;28;20077;-85
2022/06/20 05:39:15;;;;;;;4.60;0.43;;;14.60;99.90;;;;;;5019993;28;20048;-83
2022/06/20 05:41:42;;;;;;;2.47;0.55;;;14.70;99.90;;;;;;5036537;28;20068;-84
2022/06/20 05:44:12;;;;;;;2.60;0.22;;;14.90;99.90;;;;;;5025809;28;20051;-83
2022/06/20 05:46:54;;;;;;;2.80;0.35;;;14.90;99.90;;;;;;5039770;28;20559;-84
2022/06/20 05:49:28;;;;;;;1.95;0.20;;;14.70;99.90;;;;;;5039177;28;20036;-83
2022/06/20 05:51:56;;;;;;;1.60;0.10;;;14.90;99.90;;;;;;5042550;28;20143;-84
2022/06/20 05:54:35;;;;;;;4.97;0.25;;;15.20;99.90;;;;;;5037048;28;20035;-84
2022/06/20 05:57:28;;;;;;;1.52;0.20;;;15.10;99.90;;;;;;5021391;28;20036;-83
2022/06/20 05:59:56;;;;;;;2.83;0.25;;;15.30;99.90;;;;;;5025413;28;20041;-84
2022/06/20 06:02:26;;;;;;;2.50;0.30;;;15.20;99.90;;;;;;5050253;28;20041;-84
2022/06/20 06:05:15;;;;;;;2.13;0.30;;;15.00;99.90;;;;;;5041956;28;20457;-84
2022/06/20 06:08:18;;;;;;;1.90;0.32;;;15.10;99.90;;;;;;5051892;28;20033;-84
2022/06/20 06:10:50;;;;;;;2.58;0.50;;;15.20;99.90;;;;;;5017926;28;20205;-84
2022/06/20 06:13:47;;;;;;;1.95;0.30;;;15.40;99.90;;;;;;5025985;28;20037;-84
2022/06/20 06:16:48;;;;;;;2.13;0.30;;;15.50;99.90;;;;;;5039670;28;20037;-82
2022/06/20 06:19:29;;;;;;;2.35;0.40;;;15.80;99.90;;;;;;5033111;28;20522;-84
2022/06/20 06:21:58;;;;;;;5.28;0.30;;;15.40;99.90;;;;;;5034848;28;20029;-83
2022/06/20 06:24:25;;;;;;;3.08;0.30;;;15.50;99.90;;;;;;5024130;28;20083;-83
2022/06/20 06:26:55;;;;;;;4.20;0.50;;;15.30;99.90;;;;;;5047880;28;20063;-84
2022/06/20 06:29:30;;;;;;;3.40;0.40;;;15.10;99.90;;;;;;5035231;28;20033;-85
2022/06/20 06:32:01;;;;;;;2.65;0.38;;;15.20;99.90;;;;;;5025343;28;20033;-84
2022/06/20 06:34:44;;;;;;;6.25;0.40;;;15.60;99.90;;;;;;5034682;28;20039;-84
2022/06/20 06:37:37;;;;;;;1.33;0.22;;;15.90;99.90;;;;;;5024458;28;20049;-83
2022/06/20 06:40:10;;;;;;;3.50;0.40;;;16.20;99.90;;;;;;5051287;28;20032;-86
2022/06/20 06:42:37;;;;;;;2.65;0.30;;;15.80;99.90;;;;;;5019972;28;20056;-85
2022/06/20 06:45:06;;;;;;;2.28;0.40;;;15.60;99.90;;;;;;5035952;28;20040;-85
2022/06/20 06:47:40;;;;;;;2.10;0.30;;;15.40;99.90;;;;;;5020631;28;20110;-85
2022/06/20 06:50:23;;;;;;;1.88;0.30;;;16.10;99.90;;;;;;5051916;28;20091;-85
2022/06/20 06:53:17;;;;;;;4.97;0.30;;;16.10;99.90;;;;;;5031798;28;20079;-83
2022/06/20 06:55:49;;;;;;;3.50;0.30;;;15.60;99.90;;;;;;4960850;28;20069;-84
2022/06/20 06:58:39;;;;;;;1.95;0.30;;;15.80;99.90;;;;;;4959724;28;20097;-85
2022/06/20 07:01:16;;;;;;;2.47;0.35;;;16.50;99.90;;;;;;4992800;28;20383;-84
2022/06/20 07:04:14;;;;;;;3.67;0.40;;;16.60;99.90;;;;;;4979988;28;20666;-85
2022/06/20 07:06:57;;;;;;;3.72;0.50;;;16.00;99.90;;;;;;4993306;28;20030;-84
2022/06/20 07:09:36;;;;;;;3.00;0.40;;;16.20;99.90;;;;;;4976150;28;20033;-84
2022/06/20 07:12:22;;;;;;;3.80;0.40;;;16.70;99.90;;;;;;4976761;28;20310;-85
2022/06/20 07:15:11;;;;;;;4.53;0.40;;;17.10;99.90;;;;;;4982274;28;20045;-85
2022/06/20 07:17:53;;;;;;;4.75;0.30;;;17.00;99.90;;;;;;4965635;28;20035;-87
2022/06/20 07:20:21;;;;;;;3.08;0.50;;;17.10;99.90;;;;;;4987378;28;20038;-87
2022/06/20 07:22:49;;;;;;;1.52;0.30;;;17.00;99.90;;;;;;4963947;28;20430;-87
2022/06/20 07:25:27;;;;;;;3.72;0.40;;;17.60;99.90;;;;;;4991543;28;20494;-87
2022/06/20 07:28:02;;;;;;;4.78;0.43;;;17.10;99.90;;;;;;4979574;28;20041;-89
2022/06/20 07:30:33;;;;;;;4.63;0.40;;;16.80;99.90;;;;;;4963351;28;20049;-86
2022/06/20 07:33:06;;;;;;;4.00;0.40;;;16.70;99.90;;;;;;5017407;28;20044;-87
2022/06/20 07:35:36;;;;;;;2.35;0.40;;;17.40;99.90;;;;;;5037835;28;20090;-88
2022/06/20 07:38:09;;;;;;;2.33;0.30;;;17.40;99.90;;;;;;5022661;28;20028;-86
2022/06/20 07:41:02;;;;;;;1.30;0.30;;;17.00;99.90;;;;;;5018824;28;20041;-86
2022/06/20 07:43:39;;;;;;;2.50;0.40;;;17.00;99.90;;;;;;5021376;28;20020;-85
2022/06/20 07:46:16;;;;;;;4.40;0.30;;;16.80;99.90;;;;;;5040759;28;20052;-87
2022/06/20 07:48:44;;;;;;;4.47;0.47;;;17.20;99.90;;;;;;5036085;28;20073;-87
2022/06/20 07:51:19;;;;;;;2.22;0.30;;;17.60;99.90;;;;;;5026033;28;20072;-87
2022/06/20 07:53:56;;;;;;;2.38;0.35;;;17.80;99.90;;;;;;5024355;28;20035;-86
2022/06/20 07:56:35;;;;;;;4.35;0.40;;;16.70;99.90;;;;;;5038265;28;20040;-86
2022/06/20 07:59:09;;;;;;;1.95;0.30;;;16.40;99.90;;;;;;5039286;28;20028;-86
2022/06/20 08:02:03;;;;;;;1.58;0.30;;;16.70;99.90;;;;;;5017747;28;20029;-87
2022/06/20 08:04:32;;;;;;;1.33;0.30;;;16.50;99.90;;;;;;5007398;28;20041;-86
2022/06/20 08:07:07;;;;;;;2.23;0.40;;;17.30;99.90;;;;;;5047253;28;20029;-89
2022/06/20 08:09:51;;;;;;;2.15;0.30;;;17.50;99.90;;;;;;5033319;28;20404;-90
2022/06/20 08:12:39;;;;;;;2.70;0.40;;;17.10;99.90;;;;;;5025248;28;20032;-87
2022/06/20 08:15:26;;;;;;;3.00;0.30;;;16.90;99.90;;;;;;5030596;28;20546;-86
2022/06/20 08:17:53;;;;;;;3.72;0.32;;;17.30;99.90;;;;;;5049332;28;20036;-88
2022/06/20 08:20:19;;;;;;;1.30;0.40;;;17.40;99.90;;;;;;5050321;28;20037;-88
2022/06/20 08:23:03;;;;;;;4.18;0.73;;;17.00;99.90;;;;;;5025019;28;20021;-89
2022/06/20 08:25:39;;;;;;;5.85;0.88;;;16.60;99.90;;;;;;5041237;28;20040;-88
2022/06/20 08:28:28;;;;;;;2.70;0.70;;;16.40;99.90;;;;;;5034558;28;20473;-89
2022/06/20 08:31:03;;;;;;;5.00;0.60;;;17.00;99.90;;;;;;5032029;28;20060;-88
2022/06/20 08:33:35;;;;;;;4.20;0.63;;;17.00;99.90;;;;;;5022220;28;20024;-88
2022/06/20 08:36:23;;;;;;;34.47;3.40;;;16.80;99.90;;;;;;5038962;28;20041;-88
2022/06/20 08:38:53;;;;;;;4.35;0.57;;;16.90;99.90;;;;;;5036056;28;20119;-90
2022/06/20 08:41:21;;;;;;;;;;;17.20;99.90;;;;;;5026811;28;20040;-87
2022/06/20 08:44:20;;;;;;;3.30;0.50;;;17.50;99.90;;;;;;5039124;28;19920;-88
2022/06/20 08:47:06;;;;;;;3.70;0.60;;;17.60;99.90;;;;;;5025614;28;20041;-86
2022/06/20 08:50:04;;;;;;;2.58;0.50;;;18.10;99.90;;;;;;5037337;28;20541;-88
2022/06/20 08:52:30;;;;;;;2.03;0.50;;;18.60;99.90;;;;;;4960937;28;20046;-90
2022/06/20 08:55:25;;;;;;;3.90;0.60;;;18.70;99.90;;;;;;4977127;28;20169;-89
2022/06/20 08:58:16;;;;;;;3.00;0.57;;;17.60;99.90;;;;;;4992312;28;20558;-89
2022/06/20 09:00:50;;;;;;;3.67;0.73;;;17.40;99.90;;;;;;4978693;28;20040;-88
2022/06/20 09:03:31;;;;;;;3.35;0.50;;;17.10;99.90;;;;;;4990699;28;20042;-89
2022/06/20 09:06:17;;;;;;;4.45;0.50;;;18.10;99.90;;;;;;4992645;28;20109;-90
2022/06/20 09:08:51;;;;;;;2.33;0.50;;;18.20;99.90;;;;;;4981434;28;20045;-90
2022/06/20 09:11:20;;;;;;;2.35;0.40;;;17.90;99.90;;;;;;4964517;28;20038;-90
2022/06/20 09:14:09;;;;;;;5.13;0.50;;;17.90;99.90;;;;;;4963482;28;20068;-87
2022/06/20 09:16:35;;;;;;;3.50;0.60;;;18.30;99.90;;;;;;4966733;28;20616;-87
2022/06/20 09:19:23;;;;;;;3.40;0.40;;;18.60;99.90;;;;;;4975661;28;20040;-89
2022/06/20 09:22:10;;;;;;;2.35;0.40;;;18.50;99.90;;;;;;4994099;28;21840;-90
2022/06/20 09:24:57;;;;;;;4.55;0.60;;;18.80;99.90;;;;;;4991036;28;20084;-90
2022/06/20 09:27:48;;;;;;;5.53;0.52;;;19.10;99.90;;;;;;4992923;28;20033;-87
2022/06/20 09:30:32;;;;;;;1.90;0.30;;;18.50;99.90;;;;;;5033218;28;20392;-87
2022/06/20 09:32:58;;;;;;;2.72;0.50;;;19.10;99.90;;;;;;5050081;28;20025;-88
2022/06/20 09:35:42;;;;;;;2.42;0.40;;;19.50;99.90;;;;;;5036878;28;20102;-85
2022/06/20 09:38:33;;;;;;;3.10;0.40;;;19.40;99.90;;;;;;5040534;28;20024;-86
2022/06/20 09:41:25;;;;;;;3.10;0.40;;;19.40;99.90;;;;;;5051289;28;20033;-86
2022/06/20 09:44:15;;;;;;;1.90;0.30;;;19.80;99.90;;;;;;5042571;28;20161;-86
2022/06/20 09:47:06;;;;;;;4.50;0.50;;;20.00;99.90;;;;;;5033823;28;20118;-86
2022/06/20 09:49:37;;;;;;;3.25;0.40;;;20.30;99.90;;;;;;5052462;28;20032;-87
2022/06/20 09:52:20;;;;;;;2.97;0.45;;;19.90;99.90;;;;;;5036688;28;20041;-87
2022/06/20 09:55:06;;;;;;;3.00;0.40;;;19.50;99.90;;;;;;5020883;28;20036;-87
2022/06/20 09:57:40;;;;;;;1.95;0.30;;;20.00;99.90;;;;;;5043237;28;20040;-86
2022/06/20 10:00:24;;;;;;;6.50;0.40;;;18.80;99.90;;;;;;5051066;28;20039;-88
2022/06/20 10:03:07;;;;;;;5.10;0.50;;;19.80;99.90;;;;;;5020502;28;20094;-86
2022/06/20 10:06:01;;;;;;;2.45;0.40;;;19.60;99.90;;;;;;5049319;28;20159;-86
2022/06/20 10:08:35;;;;;;;4.25;0.40;;;19.50;99.90;;;;;;5051849;28;20112;-86
2022/06/20 10:11:29;;;;;;;3.75;0.50;;;20.10;99.90;;;;;;5035810;28;20082;-88
2022/06/20 10:14:09;;;;;;;4.88;0.50;;;20.40;99.90;;;;;;5039408;28;20036;-87
2022/06/20 10:16:56;;;;;;;3.05;0.60;;;20.30;99.90;;;;;;5036661;28;20167;-85
2022/06/20 10:19:21;;;;;;;2.47;0.40;;;20.20;99.90;;;;;;5019870;28;20033;-88
2022/06/20 10:22:13;;;;;;;1.80;0.40;;;19.60;99.90;;;;;;5050336;28;20027;-86
2022/06/20 10:24:54;;;;;;;1.55;0.32;;;19.20;99.90;;;;;;5024727;28;20040;-87
2022/06/20 10:28:16;;;;;;;2.50;0.40;;;19.10;99.90;;;;;;5014185;28;20036;-87
2022/06/20 10:30:48;;;;;;;1.67;0.35;;;19.90;99.90;;;;;;4961606;28;20038;-86
2022/06/20 10:33:30;;;;;;;3.13;0.60;;;20.40;99.90;;;;;;4959778;28;20259;-84
2022/06/20 10:36:17;;;;;;;2.58;0.32;;;20.20;99.90;;;;;;4963984;28;20180;-87
2022/06/20 10:39:02;;;;;;;1.95;0.32;;;20.30;99.90;;;;;;4964921;28;20043;-89
2022/06/20 10:41:43;;;;;;;1.52;0.30;;;20.70;99.90;;;;;;4981145;28;20042;-85
2022/06/20 10:44:56;;;;;;;3.28;0.30;;;20.00;99.90;;;;;;4981836;28;20075;-87
2022/06/20 10:47:30;;;;;;;2.97;0.50;;;20.20;99.90;;;;;;4927011;28;20109;-87
2022/06/20 10:50:17;;;;;;;2.03;0.40;;;20.30;99.90;;;;;;4939522;28;20458;-86
2022/06/20 10:52:54;;;;;;;2.15;0.30;;;20.60;99.90;;;;;;4930277;28;20479;-88
2022/06/20 10:55:51;;;;;;;1.95;0.30;;;20.90;99.90;;;;;;4945041;28;20158;-86
2022/06/20 10:58:19;;;;;;;2.65;0.68;;;20.80;99.90;;;;;;4945826;28;20129;-87
2022/06/20 11:01:26;;;;;;;2.20;0.30;;;20.80;99.90;;;;;;4939924;28;20034;-86
2022/06/20 11:04:07;;;;;;;1.65;0.30;;;20.60;99.90;;;;;;4952364;28;20039;-87
2022/06/20 11:06:39;;;;;;;2.90;0.30;;;20.70;99.90;;;;;;5014163;28;20082;-87
2022/06/20 11:09:13;;;;;;;3.42;0.20;;;20.80;99.90;;;;;;5015267;28;20059;-88
2022/06/20 11:11:42;;;;;;;3.47;0.30;;;20.60;99.90;;;;;;4985643;28;20136;-86
2022/06/20 11:14:25;;;;;;;1.57;0.30;;;20.20;99.90;;;;;;4999898;28;20050;-88
2022/06/20 11:17:09;;;;;;;3.15;0.40;;;19.70;99.90;;;;;;5014715;28;20639;-86
2022/06/20 11:19:51;;;;;;;1.27;0.20;;;19.60;99.90;;;;;;5004619;28;20432;-88
2022/06/20 11:22:36;;;;;;;3.22;0.20;;;19.60;99.90;;;;;;5028688;28;20045;-88
2022/06/20 11:25:24;;;;;;;1.23;0.20;;;19.60;99.90;;;;;;5040316;28;20033;-86
2022/06/20 11:28:15;;;;;;;1.80;0.20;;;20.80;99.90;;;;;;5037218;28;20131;-86
2022/06/20 11:30:47;;;;;;;1.25;0.20;;;21.10;99.90;;;;;;5035202;28;20086;-86
2022/06/20 11:36:25;;;;;;;3.60;0.20;;;19.50;99.90;;;;;;5050349;28;20094;-86
2022/06/20 11:39:25;;;;;;;1.48;0.30;;;19.90;99.90;;;;;;5047644;28;20070;-87
2022/06/20 11:42:04;;;;;;;3.33;0.30;;;19.60;99.90;;;;;;4981239;28;20072;-86
2022/06/20 11:44:45;;;;;;;1.55;0.25;;;19.70;99.90;;;;;;4983707;28;20050;-86
2022/06/20 11:47:39;;;;;;;1.80;0.20;;;19.50;99.90;;;;;;4981674;28;20419;-86
2022/06/20 11:50:19;;;;;;;2.63;0.20;;;19.40;99.90;;;;;;4982265;28;20072;-85
2022/06/20 11:52:56;;;;;;;1.20;0.20;;;19.40;99.90;;;;;;4996398;28;20046;-85
2022/06/20 11:55:39;;;;;;;2.00;0.30;;;19.30;99.90;;;;;;4987344;28;20037;-86
2022/06/20 11:58:29;;;;;;;2.10;0.40;;;19.20;99.90;;;;;;4979638;28;20038;-85
2022/06/20 12:01:02;;;;;;;1.52;0.40;;;19.20;99.90;;;;;;4965172;28;20483;-86
2022/06/20 12:03:47;;;;;;;3.13;0.40;;;19.40;99.90;;;;;;4981368;28;21425;-86
2022/06/20 12:06:25;;;;;;;3.05;0.40;;;19.20;99.90;;;;;;4982578;28;20030;-85
2022/06/20 12:09:01;;;;;;;2.72;0.30;;;18.90;99.90;;;;;;4998057;28;20478;-86
2022/06/20 12:11:30;;;;;;;2.40;0.30;;;19.30;99.90;;;;;;4964120;28;20065;-85
2022/06/20 12:14:06;;;;;;;2.90;0.40;;;20.10;99.90;;;;;;4982438;28;20528;-85
2022/06/20 12:16:32;;;;;;;2.22;0.30;;;19.50;99.90;;;;;;4979813;28;20411;-84
2022/06/20 12:24:48;;;;;;;3.05;0.30;;;20.10;99.90;;;;;;5034472;28;20392;-86
2022/06/20 12:27:17;;;;;;;1.75;0.20;;;19.90;99.90;;;;;;5038469;28;20557;-86
2022/06/20 12:29:44;;;;;;;2.28;0.30;;;20.10;99.90;;;;;;5032375;28;20040;-84
2022/06/20 12:32:19;;;;;;;1.52;0.20;;;19.80;99.90;;;;;;5049407;28;20021;-86
2022/06/20 12:34:59;;;;;;;2.75;0.30;;;20.10;99.90;;;;;;5048801;28;20029;-87
2022/06/20 12:37:35;;;;;;;2.25;0.40;;;20.50;99.90;;;;;;5048787;28;20068;-85
2022/06/20 12:40:10;;;;;;;2.40;0.30;;;20.70;99.90;;;;;;5023113;28;20031;-85
2022/06/20 12:42:42;;;;;;;3.35;0.30;;;21.30;99.90;;;;;;5021411;28;20460;-86
2022/06/20 12:45:27;;;;;;;2.22;0.30;;;21.20;99.90;;;;;;5023558;28;20029;-86
2022/06/20 12:48:10;;;;;;;2.20;0.30;;;20.40;99.90;;;;;;5047733;28;20063;-84
2022/06/20 12:50:44;;;;;;;3.63;0.43;;;19.80;99.90;;;;;;5034981;28;20037;-86
2022/06/20 12:53:34;;;;;;;1.98;0.40;;;19.90;99.90;;;;;;5042343;28;20052;-86
2022/06/20 12:56:30;;;;;;;1.88;0.30;;;20.40;99.90;;;;;;5036967;28;20040;-86
2022/06/20 12:59:33;;;;;;;2.33;0.38;;;20.60;99.90;;;;;;5043144;28;20432;-86
2022/06/20 13:02:28;;;;;;;1.25;0.30;;;21.30;99.90;;;;;;5039266;28;20036;-86
2022/06/20 13:05:31;;;;;;;1.70;0.30;;;21.00;99.90;;;;;;5042457;28;20431;-85
2022/06/20 13:08:31;;;;;;;2.33;0.40;;;20.40;99.90;;;;;;5024886;28;20032;-86
2022/06/20 13:11:22;;;;;;;2.10;0.22;;;20.60;99.90;;;;;;5019137;28;20064;-86
2022/06/20 13:14:05;;;;;;;2.13;0.30;;;20.60;99.90;;;;;;5034117;28;20039;-86
2022/06/20 13:16:34;;;;;;;3.13;0.25;;;20.70;99.90;;;;;;5028335;28;20024;-87
2022/06/20 13:19:31;;;;;;;2.83;0.25;;;20.40;99.90;;;;;;5039921;28;20040;-86
2022/06/20 13:22:07;;;;;;;2.90;0.30;;;20.00;99.90;;;;;;5036812;28;20475;-86
2022/06/20 13:24:41;;;;;;;2.85;0.40;;;19.40;99.90;;;;;;5039521;28;20062;-84
2022/06/20 13:27:29;;;;;;;2.72;0.30;;;19.10;99.90;;;;;;5035737;28;20036;-86
2022/06/20 13:30:16;;;;;;;4.20;0.30;;;19.00;99.90;;;;;;5027692;28;20063;-84
2022/06/20 13:33:01;;;;;;;3.25;0.40;;;18.90;99.90;;;;;;5036296;28;20116;-85
2022/06/20 13:35:52;;;;;;;2.30;0.40;;;20.00;99.90;;;;;;5051488;28;20048;-87
2022/06/20 13:38:24;;;;;;;2.85;0.30;;;20.20;99.90;;;;;;5028054;28;20127;-85
2022/06/20 13:41:07;;;;;;;3.55;0.40;;;20.40;99.90;;;;;;5040570;28;20032;-86
2022/06/20 13:43:47;;;;;;;1.98;0.30;;;21.00;99.90;;;;;;5028073;28;20091;-86
2022/06/20 13:46:25;;;;;;;1.80;0.20;;;21.10;99.90;;;;;;5034307;28;20161;-85
2022/06/20 13:49:10;;;;;;;2.97;0.35;;;20.80;99.90;;;;;;5033936;28;20120;-85
2022/06/20 13:52:05;;;;;;;3.33;0.50;;;21.10;99.90;;;;;;5050742;28;20046;-85
2022/06/20 13:55:13;;;;;;;4.72;0.40;;;21.50;99.90;;;;;;5033630;28;20033;-87
2022/06/20 13:57:44;;;;;;;2.17;0.30;;;20.90;99.90;;;;;;5037245;28;20357;-84
2022/06/20 14:00:16;;;;;;;5.38;0.43;;;20.80;99.90;;;;;;5024316;28;20033;-87